sensor_id;sensor_type;location;lat;lon;timestamp;pressure;altitude;pressure_sealevel;temperature;humidity
6393;BME280;3229;42.674;23.282;2023-02-28T00:01:18;95058.00;;;13.09;62.58
6393;BME280;3229;42.674;23.282;2023-02-28T00:03:45;95069.88;;;13.10;62.66
6393;BME280;3229;42.674;23.282;2023-02-28T00:06:12;95073.25;;;13.10;62.54
6393;BME280;3229;42.674;23.282;2023-02-28T00:08:39;95067.59;;;13.06;62.77
6393;BME280;3229;42.674;23.282;2023-02-28T00:11:08;95075.97;;;13.09;62.56
6393;BME280;3229;42.674;23.282;2023-02-28T00:13:38;95070.97;;;13.07;62.75
6393;BME280;3229;42.674;23.282;2023-02-28T00:16:07;95067.59;;;13.06;62.72
6393;BME280;3229;42.674;23.282;2023-02-28T00:18:34;95072.88;;;13.05;62.72
6393;BME280;3229;42.674;23.282;2023-02-28T00:21:01;95083.16;;;13.05;62.70
6393;BME280;3229;42.674;23.282;2023-02-28T00:23:28;95083.16;;;13.05;62.59
6393;BME280;3229;42.674;23.282;2023-02-28T00:25:55;95094.22;;;13.05;62.80
6393;BME280;3229;42.674;23.282;2023-02-28T00:28:23;95084.91;;;13.04;62.99
6393;BME280;3229;42.674;23.282;2023-02-28T00:30:50;95095.03;;;13.06;62.74
6393;BME280;3229;42.674;23.282;2023-02-28T00:33:17;95083.44;;;13.02;62.81
6393;BME280;3229;42.674;23.282;2023-02-28T00:35:44;95083.81;;;13.07;62.87
6393;BME280;3229;42.674;23.282;2023-02-28T00:38:12;95089.91;;;13.06;62.73
6393;BME280;3229;42.674;23.282;2023-02-28T00:40:39;95083.81;;;13.07;62.78
6393;BME280;3229;42.674;23.282;2023-02-28T00:43:06;95093.00;;;13.10;62.88
6393;BME280;3229;42.674;23.282;2023-02-28T00:45:34;95093.78;;;13.10;62.72
6393;BME280;3229;42.674;23.282;2023-02-28T00:48:01;95080.97;;;13.10;62.70
6393;BME280;3229;42.674;23.282;2023-02-28T00:50:28;95088.81;;;13.09;62.72
6393;BME280;3229;42.674;23.282;2023-02-28T00:52:55;95083.69;;;13.09;62.86
6393;BME280;3229;42.674;23.282;2023-02-28T00:55:21;95080.44;;;13.06;62.73
6393;BME280;3229;42.674;23.282;2023-02-28T00:57:48;95077.06;;;13.06;62.90
6393;BME280;3229;42.674;23.282;2023-02-28T01:00:16;95080.59;;;13.05;62.72
6393;BME280;3229;42.674;23.282;2023-02-28T01:02:45;95078.13;;;13.03;62.97
6393;BME280;3229;42.674;23.282;2023-02-28T01:05:11;95084.22;;;13.02;62.86
6393;BME280;3229;42.674;23.282;2023-02-28T01:07:39;95074.25;;;12.99;63.07
6393;BME280;3229;42.674;23.282;2023-02-28T01:10:06;95082.78;;;13.00;63.08
6393;BME280;3229;42.674;23.282;2023-02-28T01:12:33;95064.19;;;12.88;63.13
6393;BME280;3229;42.674;23.282;2023-02-28T01:15:00;95073.75;;;12.96;63.07
6393;BME280;3229;42.674;23.282;2023-02-28T01:17:27;95079.00;;;12.94;63.02
6393;BME280;3229;42.674;23.282;2023-02-28T01:19:55;95075.78;;;12.92;63.11
6393;BME280;3229;42.674;23.282;2023-02-28T01:22:22;95073.34;;;12.91;63.29
6393;BME280;3229;42.674;23.282;2023-02-28T01:24:49;95071.72;;;12.90;63.33
6393;BME280;3229;42.674;23.282;2023-02-28T01:27:15;95081.03;;;12.91;63.29
6393;BME280;3229;42.674;23.282;2023-02-28T01:29:42;95078.47;;;12.91;63.35
6393;BME280;3229;42.674;23.282;2023-02-28T01:32:09;95082.00;;;12.90;63.28
6393;BME280;3229;42.674;23.282;2023-02-28T01:34:36;95070.13;;;12.89;63.45
6393;BME280;3229;42.674;23.282;2023-02-28T01:37:04;95071.06;;;12.88;63.42
6393;BME280;3229;42.674;23.282;2023-02-28T01:39:31;95070.41;;;12.86;63.33
6393;BME280;3229;42.674;23.282;2023-02-28T01:41:58;95081.47;;;12.86;63.23
6393;BME280;3229;42.674;23.282;2023-02-28T01:47:41;95081.91;;;12.81;63.26
6393;BME280;3229;42.674;23.282;2023-02-28T01:50:12;95091.50;;;12.79;63.32
6393;BME280;3229;42.674;23.282;2023-02-28T01:52:43;95082.19;;;12.78;63.44
6393;BME280;3229;42.674;23.282;2023-02-28T01:55:11;95083.13;;;12.77;63.18
6393;BME280;3229;42.674;23.282;2023-02-28T01:57:41;95086.66;;;12.76;63.30
6393;BME280;3229;42.674;23.282;2023-02-28T02:00:11;95074.94;;;12.74;63.19
6393;BME280;3229;42.674;23.282;2023-02-28T02:02:42;95084.66;;;12.70;63.14
6393;BME280;3229;42.674;23.282;2023-02-28T02:05:13;95076.00;;;12.71;63.37
6393;BME280;3229;42.674;23.282;2023-02-28T02:07:45;95079.53;;;12.70;63.23
6393;BME280;3229;42.674;23.282;2023-02-28T02:10:15;95067.78;;;12.68;63.15
6393;BME280;3229;42.674;23.282;2023-02-28T02:13:03;95081.13;;;12.71;63.24
6393;BME280;3229;42.674;23.282;2023-02-28T02:15:34;95076.16;;;12.70;63.28
6393;BME280;3229;42.674;23.282;2023-02-28T02:18:12;95074.50;;;12.69;63.32
6393;BME280;3229;42.674;23.282;2023-02-28T02:21:18;95074.50;;;12.69;63.30
6393;BME280;3229;42.674;23.282;2023-02-28T02:24:12;95078.84;;;12.68;63.41
6393;BME280;3229;42.674;23.282;2023-02-28T02:26:58;95074.66;;;12.67;63.17
6393;BME280;3229;42.674;23.282;2023-02-28T02:32:58;95075.63;;;12.66;63.28
6393;BME280;3229;42.674;23.282;2023-02-28T02:35:31;95082.53;;;12.66;63.37
6393;BME280;3229;42.674;23.282;2023-02-28T02:38:06;95076.56;;;12.65;63.51
6393;BME280;3229;42.674;23.282;2023-02-28T02:40:38;95071.44;;;12.65;63.41
6393;BME280;3229;42.674;23.282;2023-02-28T02:43:15;95079.16;;;12.65;63.35
6393;BME280;3229;42.674;23.282;2023-02-28T02:45:47;95083.31;;;12.66;63.55
6393;BME280;3229;42.674;23.282;2023-02-28T02:48:17;95084.28;;;12.65;63.55
6393;BME280;3229;42.674;23.282;2023-02-28T02:50:50;95092.78;;;12.66;63.46
6393;BME280;3229;42.674;23.282;2023-02-28T02:53:21;95080.06;;;12.64;63.43
6393;BME280;3229;42.674;23.282;2023-02-28T02:55:51;95082.63;;;12.64;63.47
6393;BME280;3229;42.674;23.282;2023-02-28T02:58:23;95085.34;;;12.63;63.55
6393;BME280;3229;42.674;23.282;2023-02-28T03:00:53;95090.34;;;12.64;63.54
6393;BME280;3229;42.674;23.282;2023-02-28T03:03:21;95098.03;;;12.64;63.46
6393;BME280;3229;42.674;23.282;2023-02-28T03:05:57;95090.34;;;12.64;63.51
6393;BME280;3229;42.674;23.282;2023-02-28T03:08:24;95098.34;;;12.61;63.54
6393;BME280;3229;42.674;23.282;2023-02-28T03:10:54;95085.09;;;12.56;63.56
6393;BME280;3229;42.674;23.282;2023-02-28T03:13:44;95104.94;;;12.64;63.40
6393;BME280;3229;42.674;23.282;2023-02-28T03:16:31;95113.44;;;12.64;63.63
6393;BME280;3229;42.674;23.282;2023-02-28T03:19:09;95120.31;;;12.64;63.56
6393;BME280;3229;42.674;23.282;2023-02-28T03:21:42;95124.66;;;12.63;63.38
6393;BME280;3229;42.674;23.282;2023-02-28T03:24:12;95123.84;;;12.63;63.72
6393;BME280;3229;42.674;23.282;2023-02-28T03:26:44;95122.88;;;12.64;63.55
6393;BME280;3229;42.674;23.282;2023-02-28T03:29:17;95123.69;;;12.64;63.68
6393;BME280;3229;42.674;23.282;2023-02-28T03:31:48;95128.03;;;12.64;63.62
6393;BME280;3229;42.674;23.282;2023-02-28T03:34:22;95121.28;;;12.63;63.69
6393;BME280;3229;42.674;23.282;2023-02-28T03:36:55;95131.53;;;12.63;63.73
6393;BME280;3229;42.674;23.282;2023-02-28T03:39:27;95124.25;;;12.58;63.51
6393;BME280;3229;42.674;23.282;2023-02-28T03:41:58;95134.25;;;12.61;63.85
6393;BME280;3229;42.674;23.282;2023-02-28T03:44:29;95135.06;;;12.62;63.64
6393;BME280;3229;42.674;23.282;2023-02-28T03:47:00;95135.06;;;12.62;63.81
6393;BME280;3229;42.674;23.282;2023-02-28T03:49:32;95131.69;;;12.61;63.61
6393;BME280;3229;42.674;23.282;2023-02-28T03:52:05;95126.97;;;12.57;63.70
6393;BME280;3229;42.674;23.282;2023-02-28T03:54:36;95141.94;;;12.61;64.00
6393;BME280;3229;42.674;23.282;2023-02-28T03:57:11;95142.88;;;12.60;63.98
6393;BME280;3229;42.674;23.282;2023-02-28T03:59:44;95143.03;;;12.59;63.81
6393;BME280;3229;42.674;23.282;2023-02-28T04:02:11;95147.19;;;12.60;63.98
6393;BME280;3229;42.674;23.282;2023-02-28T04:04:38;95141.00;;;12.62;63.87
6393;BME280;3229;42.674;23.282;2023-02-28T04:07:15;95145.16;;;12.63;63.63
6393;BME280;3229;42.674;23.282;2023-02-28T04:09:42;95146.13;;;12.62;63.94
6393;BME280;3229;42.674;23.282;2023-02-28T04:12:09;95138.44;;;12.62;64.15
6393;BME280;3229;42.674;23.282;2023-02-28T04:14:36;95141.00;;;12.62;63.88
6393;BME280;3229;42.674;23.282;2023-02-28T04:17:03;95138.44;;;12.62;63.88
6393;BME280;3229;42.674;23.282;2023-02-28T04:19:30;95140.03;;;12.63;64.14
6393;BME280;3229;42.674;23.282;2023-02-28T04:21:57;95132.34;;;12.63;63.90
6393;BME280;3229;42.674;23.282;2023-02-28T04:24:27;95135.06;;;12.62;64.12
6393;BME280;3229;42.674;23.282;2023-02-28T04:26:55;95137.63;;;12.62;64.04
6393;BME280;3229;42.674;23.282;2023-02-28T04:29:24;95131.53;;;12.63;64.18
6393;BME280;3229;42.674;23.282;2023-02-28T04:31:51;95135.97;;;12.61;64.03
6393;BME280;3229;42.674;23.282;2023-02-28T04:34:19;95141.13;;;12.61;63.85
6393;BME280;3229;42.674;23.282;2023-02-28T04:36:46;95145.16;;;12.63;64.06
6393;BME280;3229;42.674;23.282;2023-02-28T04:39:14;95140.03;;;12.63;63.95
6393;BME280;3229;42.674;23.282;2023-02-28T04:41:43;95143.56;;;12.62;64.10
6393;BME280;3229;42.674;23.282;2023-02-28T04:44:10;95143.84;;;12.59;64.14
6393;BME280;3229;42.674;23.282;2023-02-28T04:46:37;95148.69;;;12.62;64.12
6393;BME280;3229;42.674;23.282;2023-02-28T04:49:04;95152.22;;;12.61;64.04
6393;BME280;3229;42.674;23.282;2023-02-28T04:51:31;95162.59;;;12.60;63.90
6393;BME280;3229;42.674;23.282;2023-02-28T04:53:58;95154.91;;;12.60;64.21
6393;BME280;3229;42.674;23.282;2023-02-28T04:56:24;95165.16;;;12.60;64.10
6393;BME280;3229;42.674;23.282;2023-02-28T04:58:52;95174.63;;;12.59;64.30
6393;BME280;3229;42.674;23.282;2023-02-28T05:01:23;95170.59;;;12.57;64.15
6393;BME280;3229;42.674;23.282;2023-02-28T05:03:50;95177.59;;;12.54;64.21
6393;BME280;3229;42.674;23.282;2023-02-28T05:06:18;95177.19;;;12.59;64.16
6393;BME280;3229;42.674;23.282;2023-02-28T05:08:45;95163.56;;;12.59;64.36
6393;BME280;3229;42.674;23.282;2023-02-28T05:11:16;95159.50;;;12.56;64.53
6393;BME280;3229;42.674;23.282;2023-02-28T05:13:43;95171.25;;;12.59;64.40
6393;BME280;3229;42.674;23.282;2023-02-28T05:16:11;95169.50;;;12.59;64.40
6393;BME280;3229;42.674;23.282;2023-02-28T05:18:38;95170.44;;;12.58;64.27
6393;BME280;3229;42.674;23.282;2023-02-28T05:21:06;95170.59;;;12.57;64.29
6393;BME280;3229;42.674;23.282;2023-02-28T05:23:43;95173.00;;;12.58;64.14
6393;BME280;3229;42.674;23.282;2023-02-28T05:26:10;95178.28;;;12.57;64.31
6393;BME280;3229;42.674;23.282;2023-02-28T05:28:36;95179.91;;;12.58;64.18
6393;BME280;3229;42.674;23.282;2023-02-28T05:31:03;95185.84;;;12.58;64.22
6393;BME280;3229;42.674;23.282;2023-02-28T05:33:32;95190.00;;;12.59;64.25
6393;BME280;3229;42.674;23.282;2023-02-28T05:35:58;95191.78;;;12.59;64.33
6393;BME280;3229;42.674;23.282;2023-02-28T05:38:25;95190.34;;;12.93;82.62
6393;BME280;3229;42.674;23.282;2023-02-28T05:40:52;95190.50;;;13.29;78.58
6393;BME280;3229;42.674;23.282;2023-02-28T05:43:19;95202.38;;;13.40;76.62
6393;BME280;3229;42.674;23.282;2023-02-28T05:45:46;95200.63;;;13.40;76.86
6393;BME280;3229;42.674;23.282;2023-02-28T05:48:13;95199.13;;;13.38;76.17
6393;BME280;3229;42.674;23.282;2023-02-28T05:50:41;95197.66;;;13.35;75.63
6393;BME280;3229;42.674;23.282;2023-02-28T05:53:10;95199.56;;;13.33;74.76
6393;BME280;3229;42.674;23.282;2023-02-28T05:55:36;95210.94;;;13.30;73.88
6393;BME280;3229;42.674;23.282;2023-02-28T05:58:04;95205.13;;;13.28;73.31
6393;BME280;3229;42.674;23.282;2023-02-28T06:00:30;95200.94;;;13.27;72.58
6393;BME280;3229;42.674;23.282;2023-02-28T06:02:57;95211.34;;;13.26;72.08
6393;BME280;3229;42.674;23.282;2023-02-28T06:05:27;95204.59;;;13.25;71.43
6393;BME280;3229;42.674;23.282;2023-02-28T06:07:55;95201.09;;;13.26;71.00
6393;BME280;3229;42.674;23.282;2023-02-28T06:10:22;95205.38;;;13.25;70.84
6393;BME280;3229;42.674;23.282;2023-02-28T06:12:49;95199.44;;;13.25;70.22
6393;BME280;3229;42.674;23.282;2023-02-28T06:15:16;95186.91;;;13.12;69.79
6393;BME280;3229;42.674;23.282;2023-02-28T06:17:44;95196.44;;;13.29;69.44
6393;BME280;3229;42.674;23.282;2023-02-28T06:20:11;95198.91;;;13.31;69.28
6393;BME280;3229;42.674;23.282;2023-02-28T06:22:39;95208.88;;;13.34;68.80
6393;BME280;3229;42.674;23.282;2023-02-28T06:25:09;95208.75;;;13.36;68.69
6393;BME280;3229;42.674;23.282;2023-02-28T06:27:36;95208.59;;;13.37;68.41
6393;BME280;3229;42.674;23.282;2023-02-28T06:30:03;95211.03;;;13.39;68.41
6393;BME280;3229;42.674;23.282;2023-02-28T06:32:30;95216.84;;;13.41;68.04
6393;BME280;3229;42.674;23.282;2023-02-28T06:34:57;95218.31;;;13.43;67.83
6393;BME280;3229;42.674;23.282;2023-02-28T06:37:24;95221.69;;;13.44;67.66
6393;BME280;3229;42.674;23.282;2023-02-28T06:39:53;95223.16;;;13.46;67.49
6393;BME280;3229;42.674;23.282;2023-02-28T06:42:22;95224.63;;;13.49;67.39
6393;BME280;3229;42.674;23.282;2023-02-28T06:44:54;95227.22;;;13.49;67.25
6393;BME280;3229;42.674;23.282;2023-02-28T06:47:21;95233.16;;;13.49;67.08
6393;BME280;3229;42.674;23.282;2023-02-28T06:49:49;95226.94;;;13.52;67.09
6393;BME280;3229;42.674;23.282;2023-02-28T06:52:16;95220.31;;;13.49;66.81
6393;BME280;3229;42.674;23.282;2023-02-28T06:54:43;95230.16;;;13.54;66.69
6393;BME280;3229;42.674;23.282;2023-02-28T06:57:10;95231.78;;;13.55;66.54
6393;BME280;3229;42.674;23.282;2023-02-28T06:59:38;95230.97;;;13.54;66.53
6393;BME280;3229;42.674;23.282;2023-02-28T07:02:05;95232.72;;;13.54;66.33
6393;BME280;3229;42.674;23.282;2023-02-28T07:04:33;95230.16;;;13.54;66.39
6393;BME280;3229;42.674;23.282;2023-02-28T07:06:59;95230.16;;;13.54;66.32
6393;BME280;3229;42.674;23.282;2023-02-28T07:09:26;95235.28;;;13.54;66.18
6393;BME280;3229;42.674;23.282;2023-02-28T07:11:55;95231.91;;;13.53;66.01
6393;BME280;3229;42.674;23.282;2023-02-28T07:14:22;95236.25;;;13.53;65.99
6393;BME280;3229;42.674;23.282;2023-02-28T07:16:50;95231.28;;;13.51;66.07
6393;BME280;3229;42.674;23.282;2023-02-28T07:19:17;95234.78;;;13.50;65.80
6393;BME280;3229;42.674;23.282;2023-02-28T07:21:44;95234.13;;;13.48;66.04
6393;BME280;3229;42.674;23.282;2023-02-28T07:24:11;95237.66;;;13.47;65.99
6393;BME280;3229;42.674;23.282;2023-02-28T07:26:41;95234.25;;;13.47;65.90
6393;BME280;3229;42.674;23.282;2023-02-28T07:29:08;95246.28;;;13.46;65.92
6393;BME280;3229;42.674;23.282;2023-02-28T07:31:35;95241.13;;;13.46;65.84
6393;BME280;3229;42.674;23.282;2023-02-28T07:34:03;95244.38;;;13.48;65.71
6393;BME280;3229;42.674;23.282;2023-02-28T07:36:30;95234.78;;;13.50;65.71
6393;BME280;3229;42.674;23.282;2023-02-28T07:38:58;95225.06;;;13.44;65.80
6393;BME280;3229;42.674;23.282;2023-02-28T07:41:25;95234.91;;;13.49;65.71
6393;BME280;3229;42.674;23.282;2023-02-28T07:43:53;95237.22;;;13.52;65.65
6393;BME280;3229;42.674;23.282;2023-02-28T07:46:21;95246.69;;;13.51;65.36
6393;BME280;3229;42.674;23.282;2023-02-28T07:48:48;95241.56;;;13.51;65.40
6393;BME280;3229;42.674;23.282;2023-02-28T07:51:16;95234.50;;;13.53;65.71
6393;BME280;3229;42.674;23.282;2023-02-28T07:53:43;95232.06;;;13.52;65.41
6393;BME280;3229;42.674;23.282;2023-02-28T07:56:11;95228.41;;;13.54;65.47
6393;BME280;3229;42.674;23.282;2023-02-28T07:58:38;95225.81;;;13.54;65.41
6393;BME280;3229;42.674;23.282;2023-02-28T08:01:06;95227.44;;;13.55;65.35
6393;BME280;3229;42.674;23.282;2023-02-28T08:03:33;95228.13;;;13.58;65.12
6393;BME280;3229;42.674;23.282;2023-02-28T08:06:01;95225.28;;;13.61;65.26
6393;BME280;3229;42.674;23.282;2023-02-28T08:08:30;95229.19;;;13.65;65.09
6393;BME280;3229;42.674;23.282;2023-02-28T08:10:58;95227.41;;;13.65;65.14
6393;BME280;3229;42.674;23.282;2023-02-28T08:13:26;95225.50;;;13.67;65.12
6393;BME280;3229;42.674;23.282;2023-02-28T08:15:54;95238.06;;;13.70;65.05
6393;BME280;3229;42.674;23.282;2023-02-28T08:18:21;95230.19;;;13.72;65.01
6393;BME280;3229;42.674;23.282;2023-02-28T08:20:48;95231.81;;;13.73;64.77
6393;BME280;3229;42.674;23.282;2023-02-28T08:23:15;95232.34;;;13.76;64.74
6393;BME280;3229;42.674;23.282;2023-02-28T08:25:43;95240.41;;;13.81;64.74
6393;BME280;3229;42.674;23.282;2023-02-28T08:28:10;95242.72;;;13.85;64.63
6393;BME280;3229;42.674;23.282;2023-02-28T08:30:37;95242.59;;;13.86;64.78
6393;BME280;3229;42.674;23.282;2023-02-28T08:33:06;95241.63;;;13.87;64.66
6393;BME280;3229;42.674;23.282;2023-02-28T08:35:35;95243.88;;;13.90;64.69
6393;BME280;3229;42.674;23.282;2023-02-28T08:38:03;95243.75;;;13.92;64.62
6393;BME280;3229;42.674;23.282;2023-02-28T08:54:52;95241.50;;;14.06;64.53
6393;BME280;3229;42.674;23.282;2023-02-28T08:57:18;95254.06;;;14.10;64.31
6393;BME280;3229;42.674;23.282;2023-02-28T08:59:45;95256.38;;;14.13;64.28
6393;BME280;3229;42.674;23.282;2023-02-28T09:02:13;95250.25;;;14.14;64.25
6393;BME280;3229;42.674;23.282;2023-02-28T09:04:41;95247.25;;;14.18;64.44
6393;BME280;3229;42.674;23.282;2023-02-28T09:07:07;95259.03;;;14.21;64.32
6393;BME280;3229;42.674;23.282;2023-02-28T09:09:34;95251.97;;;14.23;64.22
6393;BME280;3229;42.674;23.282;2023-02-28T09:12:03;95246.53;;;14.26;64.11
6393;BME280;3229;42.674;23.282;2023-02-28T09:14:30;95246.38;;;14.27;64.24
6393;BME280;3229;42.674;23.282;2023-02-28T09:16:57;95246.22;;;14.29;64.20
6393;BME280;3229;42.674;23.282;2023-02-28T09:19:24;95240.25;;;14.28;63.97
6393;BME280;3229;42.674;23.282;2023-02-28T09:21:51;95239.16;;;14.31;63.93
6393;BME280;3229;42.674;23.282;2023-02-28T09:24:18;95244.69;;;14.36;64.12
6393;BME280;3229;42.674;23.282;2023-02-28T09:26:45;95236.66;;;14.39;64.06
6393;BME280;3229;42.674;23.282;2023-02-28T09:29:14;95236.88;;;14.46;63.66
6393;BME280;3229;42.674;23.282;2023-02-28T09:31:42;95239.56;;;14.54;63.81
6393;BME280;3229;42.674;23.282;2023-02-28T09:34:09;95240.75;;;14.60;63.51
6393;BME280;3229;42.674;23.282;2023-02-28T09:36:35;95242.88;;;14.64;63.67
6393;BME280;3229;42.674;23.282;2023-02-28T09:39:03;95244.19;;;14.68;63.69
6393;BME280;3229;42.674;23.282;2023-02-28T09:41:36;95242.63;;;14.75;63.38
6393;BME280;3229;42.674;23.282;2023-02-28T09:44:07;95241.06;;;14.83;63.36
6393;BME280;3229;42.674;23.282;2023-02-28T09:46:43;95232.28;;;14.93;63.20
6393;BME280;3229;42.674;23.282;2023-02-28T09:49:14;95232.84;;;15.05;62.86
6393;BME280;3229;42.674;23.282;2023-02-28T09:51:49;95230.66;;;15.18;62.67
6393;BME280;3229;42.674;23.282;2023-02-28T09:54:19;95232.19;;;15.29;62.51
6393;BME280;3229;42.674;23.282;2023-02-28T09:56:50;95221.09;;;15.37;62.39
6393;BME280;3229;42.674;23.282;2023-02-28T09:59:29;95222.09;;;15.44;62.38
6393;BME280;3229;42.674;23.282;2023-02-28T10:02:07;95214.25;;;15.53;62.26
6393;BME280;3229;42.674;23.282;2023-02-28T10:04:43;95220.41;;;15.61;62.06
6393;BME280;3229;42.674;23.282;2023-02-28T10:07:30;95210.44;;;15.66;61.92
6393;BME280;3229;42.674;23.282;2023-02-28T10:10:06;95208.56;;;15.76;61.77
6393;BME280;3229;42.674;23.282;2023-02-28T10:12:40;95201.66;;;15.85;61.65
6393;BME280;3229;42.674;23.282;2023-02-28T10:15:13;95209.91;;;15.96;61.59
6393;BME280;3229;42.674;23.282;2023-02-28T10:17:44;95200.41;;;16.05;61.63
6393;BME280;3229;42.674;23.282;2023-02-28T10:20:15;95194.94;;;16.08;61.44
6393;BME280;3229;42.674;23.282;2023-02-28T10:26:29;95190.75;;;16.31;61.26
6393;BME280;3229;42.674;23.282;2023-02-28T10:28:56;95190.75;;;16.40;61.10
6393;BME280;3229;42.674;23.282;2023-02-28T10:31:23;95185.09;;;16.44;60.96
6393;BME280;3229;42.674;23.282;2023-02-28T10:33:52;95182.88;;;16.49;61.06
6393;BME280;3229;42.674;23.282;2023-02-28T10:36:20;95179.31;;;16.50;61.01
6393;BME280;3229;42.674;23.282;2023-02-28T10:38:48;95176.25;;;16.63;60.65
6393;BME280;3229;42.674;23.282;2023-02-28T10:41:25;95171.56;;;16.75;60.49
6393;BME280;3229;42.674;23.282;2023-02-28T10:44:13;95161.19;;;16.91;60.34
6393;BME280;3229;42.674;23.282;2023-02-28T10:46:41;95160.53;;;17.05;59.87
6393;BME280;3229;42.674;23.282;2023-02-28T10:49:17;95149.50;;;17.20;59.74
6393;BME280;3229;42.674;23.282;2023-02-28T10:51:45;95150.56;;;17.34;59.42
6393;BME280;3229;42.674;23.282;2023-02-28T10:54:18;95136.13;;;17.47;59.31
6393;BME280;3229;42.674;23.282;2023-02-28T10:56:45;95138.81;;;17.62;59.06
6393;BME280;3229;42.674;23.282;2023-02-28T10:59:29;95139.25;;;17.74;58.90
6393;BME280;3229;42.674;23.282;2023-02-28T11:01:56;95138.41;;;17.82;58.68
6393;BME280;3229;42.674;23.282;2023-02-28T11:04:36;95134.44;;;17.94;58.65
6393;BME280;3229;42.674;23.282;2023-02-28T11:07:06;95134.06;;;18.05;58.44
6393;BME280;3229;42.674;23.282;2023-02-28T11:09:46;95125.72;;;18.18;57.97
6393;BME280;3229;42.674;23.282;2023-02-28T11:12:21;95123.50;;;18.29;57.99
6393;BME280;3229;42.674;23.282;2023-02-28T11:14:50;95122.44;;;18.39;57.73
6393;BME280;3229;42.674;23.282;2023-02-28T11:17:21;95116.06;;;18.49;57.67
6393;BME280;3229;42.674;23.282;2023-02-28T11:19:53;95111.13;;;18.54;57.48
6393;BME280;3229;42.674;23.282;2023-02-28T11:22:23;95113.47;;;18.64;57.30
6393;BME280;3229;42.674;23.282;2023-02-28T11:24:55;95116.34;;;18.69;57.31
6393;BME280;3229;42.674;23.282;2023-02-28T11:27:48;95109.69;;;18.75;57.08
6393;BME280;3229;42.674;23.282;2023-02-28T11:30:27;95107.16;;;18.82;56.91
6393;BME280;3229;42.674;23.282;2023-02-28T11:32:55;95102.25;;;18.87;56.91
6393;BME280;3229;42.674;23.282;2023-02-28T11:35:26;95099.94;;;18.92;56.69
6393;BME280;3229;42.674;23.282;2023-02-28T11:37:55;95100.66;;;19.00;56.37
6393;BME280;3229;42.674;23.282;2023-02-28T11:40:30;95105.91;;;19.07;56.23
6393;BME280;3229;42.674;23.282;2023-02-28T11:43:06;95101.38;;;19.09;56.24
6393;BME280;3229;42.674;23.282;2023-02-28T11:45:48;95095.53;;;19.07;56.03
6393;BME280;3229;42.674;23.282;2023-02-28T11:48:22;95111.91;;;19.08;56.06
6393;BME280;3229;42.674;23.282;2023-02-28T11:51:05;95101.19;;;19.11;55.91
6393;BME280;3229;42.674;23.282;2023-02-28T11:53:50;95102.63;;;19.13;55.76
6393;BME280;3229;42.674;23.282;2023-02-28T11:56:23;95094.66;;;19.15;55.64
6393;BME280;3229;42.674;23.282;2023-02-28T11:58:59;95099.50;;;19.18;55.51
6393;BME280;3229;42.674;23.282;2023-02-28T12:01:42;95094.91;;;19.20;55.43
6393;BME280;3229;42.674;23.282;2023-02-28T12:04:24;95090.97;;;19.24;55.16
6393;BME280;3229;42.674;23.282;2023-02-28T12:06:57;95095.00;;;19.26;55.23
6393;BME280;3229;42.674;23.282;2023-02-28T12:09:40;95095.81;;;19.27;55.17
6393;BME280;3229;42.674;23.282;2023-02-28T12:12:19;95095.00;;;19.26;55.08
6393;BME280;3229;42.674;23.282;2023-02-28T12:15:05;95089.19;;;19.24;55.05
6393;BME280;3229;42.674;23.282;2023-02-28T12:17:50;95087.59;;;19.23;55.07
6393;BME280;3229;42.674;23.282;2023-02-28T12:20:26;95082.59;;;19.22;54.98
6393;BME280;3229;42.674;23.282;2023-02-28T12:23:04;95081.84;;;19.28;54.92
6393;BME280;3229;42.674;23.282;2023-02-28T12:25:50;95087.28;;;19.33;54.82
6393;BME280;3229;42.674;23.282;2023-02-28T12:28:24;95084.34;;;19.36;54.73
6393;BME280;3229;42.674;23.282;2023-02-28T12:30:56;95091.56;;;19.41;54.43
6393;BME280;3229;42.674;23.282;2023-02-28T12:33:27;95092.03;;;19.44;54.48
6393;BME280;3229;42.674;23.282;2023-02-28T12:35:59;95069.84;;;19.42;54.34
6393;BME280;3229;42.674;23.282;2023-02-28T12:38:34;95086.28;;;19.49;54.34
6393;BME280;3229;42.674;23.282;2023-02-28T12:41:04;95086.28;;;19.49;54.23
6393;BME280;3229;42.674;23.282;2023-02-28T12:43:35;95081.09;;;19.49;54.18
6393;BME280;3229;42.674;23.282;2023-02-28T12:46:08;95077.06;;;19.46;54.42
6393;BME280;3229;42.674;23.282;2023-02-28T12:48:39;95075.66;;;19.44;54.23
6393;BME280;3229;42.674;23.282;2023-02-28T12:51:08;95078.59;;;19.41;54.34
6393;BME280;3229;42.674;23.282;2023-02-28T12:53:47;95072.81;;;19.39;54.29
6393;BME280;3229;42.674;23.282;2023-02-28T12:56:19;95079.94;;;19.37;54.24
6393;BME280;3229;42.674;23.282;2023-02-28T12:58:51;95081.75;;;19.36;54.10
6393;BME280;3229;42.674;23.282;2023-02-28T13:01:36;95080.16;;;19.35;54.13
6393;BME280;3229;42.674;23.282;2023-02-28T13:04:26;95068.69;;;19.29;53.98
6393;BME280;3229;42.674;23.282;2023-02-28T13:07:05;95081.31;;;19.33;54.10
6393;BME280;3229;42.674;23.282;2023-02-28T13:09:39;95070.31;;;19.30;54.04
6393;BME280;3229;42.674;23.282;2023-02-28T13:12:13;95080.69;;;19.30;54.01
6393;BME280;3229;42.674;23.282;2023-02-28T13:14:41;95068.69;;;19.29;53.99
6393;BME280;3229;42.674;23.282;2023-02-28T13:17:12;95081.25;;;19.26;53.88
6393;BME280;3229;42.674;23.282;2023-02-28T13:19:43;95077.41;;;19.22;53.98
6393;BME280;3229;42.674;23.282;2023-02-28T13:22:17;95071.94;;;19.17;53.89
6393;BME280;3229;42.674;23.282;2023-02-28T13:24:49;95063.53;;;19.15;53.95
6393;BME280;3229;42.674;23.282;2023-02-28T13:27:32;95061.50;;;19.10;53.97
6393;BME280;3229;42.674;23.282;2023-02-28T13:30:00;95061.03;;;19.07;53.91
6393;BME280;3229;42.674;23.282;2023-02-28T13:32:36;95076.94;;;19.03;54.18
6393;BME280;3229;42.674;23.282;2023-02-28T13:35:35;95067.13;;;18.99;53.88
6393;BME280;3229;42.674;23.282;2023-02-28T13:38:36;95063.28;;;18.95;53.99
6393;BME280;3229;42.674;23.282;2023-02-28T13:44:06;95057.78;;;18.83;53.96
6393;BME280;3229;42.674;23.282;2023-02-28T13:46:35;95045.34;;;18.78;53.96
6393;BME280;3229;42.674;23.282;2023-02-28T13:49:19;95040.53;;;18.75;53.98
6393;BME280;3229;42.674;23.282;2023-02-28T13:51:46;95037.59;;;18.78;53.79
6393;BME280;3229;42.674;23.282;2023-02-28T13:54:29;95039.34;;;18.78;53.89
6393;BME280;3229;42.674;23.282;2023-02-28T13:57:12;95039.53;;;18.76;53.84